Time;durP1;ratioP1;P1;durP2;ratioP2;P2;SDS_P1;SDS_P2;PMS_P1;PMS_P2;Temp;Humidity;BMP_temperature;BMP_pressure;BME280_temperature;BME280_humidity;BME280_pressure;Samples;Min_cycle;Max_cycle;Signal;HPM_P1;HPM_P2
2023/01/24 00:01:15;;;;;;;31.45;11.90;;;;;;;4.68;100.00;101230.91;4981816;28;20043;-63
2023/01/24 00:03:40;;;;;;;27.50;11.30;;;;;;;4.68;100.00;101223.91;4978269;28;20039;-62
2023/01/24 00:06:06;;;;;;;22.75;9.82;;;;;;;4.71;100.00;101221.09;4978703;28;20038;-62
2023/01/24 00:08:31;;;;;;;29.77;11.27;;;;;;;4.68;100.00;101228.28;4981000;28;20261;-62
2023/01/24 00:10:59;;;;;;;32.47;12.30;;;;;;;4.78;100.00;101221.59;4980995;28;20050;-62
2023/01/24 00:13:25;;;;;;;31.83;13.65;;;;;;;4.79;100.00;101232.00;4981139;28;20096;-64
2023/01/24 00:15:50;;;;;;;33.55;12.70;;;;;;;4.66;100.00;101231.00;4979425;28;20354;-64
2023/01/24 00:18:16;;;;;;;27.50;11.40;;;;;;;4.67;100.00;101232.69;4978947;28;20062;-61
2023/01/24 00:20:41;;;;;;;31.75;12.63;;;;;;;4.68;100.00;101236.16;4978864;28;20026;-62
2023/01/24 00:23:07;;;;;;;26.50;11.90;;;;;;;4.75;100.00;101240.13;4980687;28;20038;-64
2023/01/24 00:25:32;;;;;;;30.17;10.85;;;;;;;4.69;100.00;101233.47;4980833;28;20033;-64
2023/01/24 00:27:58;;;;;;;26.15;10.40;;;;;;;4.73;100.00;101239.38;4979918;28;20228;-62
2023/01/24 00:30:23;;;;;;;25.15;11.05;;;;;;;4.72;100.00;101240.31;4981052;28;20335;-62
2023/01/24 00:32:49;;;;;;;31.63;13.77;;;;;;;4.79;100.00;101232.00;4980316;28;20031;-62
2023/01/24 00:35:14;;;;;;;21.88;9.07;;;;;;;4.66;100.00;101235.41;4980080;28;20057;-62
2023/01/24 00:37:40;;;;;;;31.70;13.45;;;;;;;4.80;100.00;101232.84;4978270;28;20125;-63
2023/01/24 00:40:07;;;;;;;31.13;12.80;;;;;;;4.73;100.00;101232.34;4979147;28;20050;-62
2023/01/24 00:42:32;;;;;;;33.20;13.50;;;;;;;4.78;100.00;101232.94;4980442;28;20342;-62
2023/01/24 00:44:58;;;;;;;33.33;13.55;;;;;;;4.74;100.00;101231.41;4979811;28;20607;-62
2023/01/24 00:47:25;;;;;;;33.33;14.05;;;;;;;4.80;100.00;101233.69;4979344;28;20047;-64
2023/01/24 00:49:50;;;;;;;31.90;12.55;;;;;;;4.76;100.00;101231.31;4980135;28;20109;-64
2023/01/24 00:52:16;;;;;;;32.88;12.50;;;;;;;4.74;100.00;101230.56;4980311;28;20043;-63
2023/01/24 00:54:41;;;;;;;28.48;11.68;;;;;;;4.63;100.00;101233.81;4980723;28;20085;-62
2023/01/24 00:57:07;;;;;;;31.10;12.15;;;;;;;4.62;100.00;101233.91;4980077;28;20042;-62
2023/01/24 00:59:32;;;;;;;31.63;12.40;;;;;;;4.50;100.00;101238.06;4978497;28;20590;-62
2023/01/24 01:01:57;;;;;;;25.88;9.27;;;;;;;4.48;100.00;101234.69;4978742;28;20046;-62
2023/01/24 01:04:23;;;;;;;39.17;13.98;;;;;;;4.58;100.00;101235.84;4979177;28;20038;-64
2023/01/24 01:06:48;;;;;;;31.83;11.13;;;;;;;4.49;100.00;101239.00;4980080;28;20061;-64
2023/01/24 01:09:14;;;;;;;34.47;14.10;;;;;;;4.51;100.00;101234.50;4980157;28;20042;-62
2023/01/24 01:11:41;;;;;;;33.65;12.60;;;;;;;4.45;100.00;101240.94;4979376;28;20080;-62
2023/01/24 01:14:07;;;;;;;27.70;10.95;;;;;;;4.49;100.00;101239.84;4978415;28;20051;-64
2023/01/24 01:16:37;;;;;;;32.30;11.55;;;;;;;4.51;100.00;101244.16;4977674;28;20377;-64
2023/01/24 01:19:03;;;;;;;33.80;13.75;;;;;;;4.46;100.00;101249.66;4978833;28;20030;-62
2023/01/24 01:21:29;;;;;;;30.25;11.60;;;;;;;4.42;100.00;101251.59;4979840;28;20058;-62
2023/01/24 01:23:54;;;;;;;35.10;13.93;;;;;;;4.35;100.00;101246.78;4980855;28;20031;-63
2023/01/24 01:26:21;;;;;;;34.53;14.38;;;;;;;4.40;100.00;101242.97;4979111;28;20035;-62
2023/01/24 01:28:47;;;;;;;43.60;15.38;;;;;;;4.32;100.00;101239.94;4980225;28;20030;-63
2023/01/24 01:31:13;;;;;;;26.70;10.73;;;;;;;4.28;100.00;101238.44;4980264;28;20115;-64
2023/01/24 01:33:38;;;;;;;39.28;14.80;;;;;;;4.32;100.00;101247.81;4977382;28;20034;-64
2023/01/24 01:36:04;;;;;;;35.00;12.52;;;;;;;4.33;100.00;101240.78;4978395;28;20094;-62
2023/01/24 01:38:29;;;;;;;32.60;12.30;;;;;;;4.42;100.00;101235.88;4979071;28;20038;-62
2023/01/24 01:40:56;;;;;;;34.88;14.40;;;;;;;4.44;100.00;101243.66;4979405;28;20053;-65
2023/01/24 01:43:24;;;;;;;35.75;13.18;;;;;;;4.52;100.00;101236.19;4977189;28;20247;-63
2023/01/24 01:45:51;;;;;;;39.42;15.20;;;;;;;4.53;100.00;101240.50;4979923;28;20342;-62
2023/01/24 01:48:46;;;;;;;33.55;12.70;;;;;;;4.45;100.00;101232.22;4980053;28;20357;-61
2023/01/24 01:51:45;;;;;;;28.15;11.57;;;;;;;4.42;100.00;101232.41;4980770;28;20054;-62
2023/01/24 01:54:22;;;;;;;29.83;11.52;;;;;;;4.39;100.00;101243.06;4978456;28;20078;-64
2023/01/24 01:56:50;;;;;;;30.95;11.25;;;;;;;4.31;100.00;101243.50;4985756;28;20039;-62
2023/01/24 01:59:24;;;;;;;24.30;10.15;;;;;;;4.15;100.00;101235.59;4984156;28;20043;-62
2023/01/24 02:01:53;;;;;;;31.05;12.00;;;;;;;4.12;100.00;101237.56;4983458;28;20345;-64
2023/01/24 02:04:41;;;;;;;30.45;12.50;;;;;;;4.15;100.00;101242.63;4983587;28;20283;-64
2023/01/24 02:07:21;;;;;;;31.42;11.35;;;;;;;4.09;100.00;101240.34;4983600;28;20054;-62
2023/01/24 02:09:50;;;;;;;34.10;13.10;;;;;;;4.16;100.00;101236.44;4984538;28;20046;-62
2023/01/24 02:12:20;;;;;;;28.60;12.02;;;;;;;4.06;100.00;101237.88;4983331;28;20046;-62
2023/01/24 02:17:38;;;;;;;24.33;10.68;;;;;;;4.09;100.00;101243.81;4983023;28;20042;-63
2023/01/24 02:20:25;;;;;;;28.30;12.85;;;;;;;4.11;100.00;101241.09;4981376;28;20413;-64
2023/01/24 02:22:57;;;;;;;29.10;10.88;;;;;;;4.12;100.00;101246.25;4980800;28;20118;-62
2023/01/24 02:25:37;;;;;;;27.85;10.85;;;;;;;4.07;100.00;101250.06;4981880;28;20032;-63
2023/01/24 02:28:05;;;;;;;29.40;10.63;;;;;;;3.98;100.00;101254.03;4982964;28;20046;-64
2023/01/24 02:30:30;;;;;;;33.65;13.45;;;;;;;4.14;100.00;101251.41;4982838;28;20101;-64
2023/01/24 02:32:56;;;;;;;25.48;9.23;;;;;;;3.92;100.00;101253.53;4979836;28;20034;-62
2023/01/24 02:35:31;;;;;;;32.67;12.32;;;;;;;3.99;100.00;101260.13;4981643;28;20070;-63
2023/01/24 02:38:00;;;;;;;27.90;10.40;;;;;;;3.92;100.00;101256.13;4982370;28;20039;-62
2023/01/24 02:40:29;;;;;;;30.75;13.32;;;;;;;3.94;100.00;101254.28;4983041;28;20034;-62
2023/01/24 02:42:58;;;;;;;39.85;13.73;;;;;;;3.98;100.00;101263.66;4982564;28;20296;-62
2023/01/24 02:45:26;;;;;;;29.58;10.68;;;;;;;3.97;100.00;101257.59;4983230;28;20400;-63
2023/01/24 02:47:53;;;;;;;36.67;14.80;;;;;;;4.10;100.00;101260.38;4982248;28;20118;-64
2023/01/24 02:50:23;;;;;;;46.08;13.82;;;;;;;3.97;100.00;101254.97;4981839;28;20218;-62
2023/01/24 02:55:33;;;;;;;30.70;11.90;;;;;;;3.97;100.00;101260.19;4980230;28;20053;-64
2023/01/24 02:58:05;;;;;;;31.73;12.48;;;;;;;3.94;100.00;101262.16;4980337;28;20103;-62
2023/01/24 03:00:32;;;;;;;17.63;7.95;;;;;;;3.88;100.00;101262.47;4982102;28;20070;-61
2023/01/24 03:02:57;;;;;;;23.85;9.43;;;;;;;3.78;100.00;101262.97;4980992;28;20382;-62
2023/01/24 03:05:22;;;;;;;31.77;11.48;;;;;;;3.81;100.00;101262.81;4981575;28;20034;-62
2023/01/24 03:07:48;;;;;;;32.47;11.98;;;;;;;3.89;100.00;101264.16;4981287;28;20038;-62
2023/01/24 03:10:16;;;;;;;33.92;10.75;;;;;;;3.85;100.00;101266.09;4979799;28;20239;-64
2023/01/24 03:34:48;;;;;;;16.42;6.70;;;;;;;3.41;100.00;101268.44;4981704;28;20081;-63
2023/01/24 03:37:15;;;;;;;17.20;6.88;;;;;;;3.42;100.00;101260.50;4981331;28;20046;-63
2023/01/24 03:39:53;;;;;;;25.35;9.15;;;;;;;3.43;100.00;101259.59;4982891;28;20057;-62
2023/01/24 03:42:19;;;;;;;21.02;9.05;;;;;;;3.39;100.00;101262.44;4981700;28;20034;-62
2023/01/24 03:44:44;;;;;;;16.73;8.48;;;;;;;3.41;100.00;101260.59;4980765;28;20034;-64
2023/01/24 03:47:09;;;;;;;25.05;10.57;;;;;;;3.45;100.00;101262.97;4981220;28;20039;-62
2023/01/24 03:52:31;;;;;;;26.70;9.93;;;;;;;3.47;100.00;101260.28;4981066;28;20113;-62
2023/01/24 03:54:58;;;;;;;25.70;10.70;;;;;;;3.56;100.00;101254.56;4979321;28;20350;-61
2023/01/24 03:57:24;;;;;;;21.27;8.60;;;;;;;3.48;100.00;101261.97;4980352;28;20059;-63
2023/01/24 03:59:50;;;;;;;19.05;8.60;;;;;;;3.42;100.00;101265.75;4980840;28;20042;-64
2023/01/24 04:02:16;;;;;;;17.17;7.00;;;;;;;3.38;100.00;101261.59;4981115;28;20057;-61
2023/01/24 04:07:27;;;;;;;24.55;10.48;;;;;;;3.30;100.00;101268.16;4980696;28;20081;-64
2023/01/24 04:09:52;;;;;;;14.98;7.53;;;;;;;3.28;100.00;101265.59;4981752;28;20038;-63
2023/01/24 04:12:18;;;;;;;21.65;9.27;;;;;;;3.29;100.00;101266.47;4980427;28;20042;-60
2023/01/24 04:14:43;;;;;;;20.27;9.00;;;;;;;3.31;100.00;101262.00;4980881;28;20405;-62
2023/01/24 04:17:09;;;;;;;16.58;7.90;;;;;;;3.38;100.00;101273.84;4979282;28;20355;-61
2023/01/24 04:19:35;;;;;;;17.20;6.75;;;;;;;3.24;100.00;101264.06;4979690;28;20035;-61
2023/01/24 04:22:00;;;;;;;16.35;8.40;;;;;;;3.31;100.00;101259.38;4980385;28;20233;-64
2023/01/24 04:24:26;;;;;;;23.52;8.55;;;;;;;3.35;100.00;101258.28;4980391;28;20906;-63
2023/01/24 04:26:51;;;;;;;19.33;9.77;;;;;;;3.29;100.00;101253.38;4980092;28;20041;-62
2023/01/24 04:29:16;;;;;;;19.10;9.38;;;;;;;3.29;100.00;101261.22;4981007;28;20351;-62
2023/01/24 04:31:42;;;;;;;17.35;7.22;;;;;;;3.18;100.00;101264.38;4980107;28;20039;-62
2023/01/24 04:34:07;;;;;;;22.08;8.35;;;;;;;3.23;100.00;101258.91;4979880;28;20047;-63
2023/01/24 04:36:33;;;;;;;21.50;10.15;;;;;;;3.25;100.00;101263.16;4980328;28;20039;-62
2023/01/24 04:38:59;;;;;;;27.45;7.82;;;;;;;3.12;100.00;101265.53;4979625;28;20404;-61
2023/01/24 04:41:24;;;;;;;23.83;9.40;;;;;;;3.03;100.00;101272.97;4980050;28;20069;-62
2023/01/24 04:43:50;;;;;;;18.50;8.50;;;;;;;3.08;100.00;101266.59;4978200;28;20088;-62
2023/01/24 04:46:15;;;;;;;21.95;7.70;;;;;;;3.00;100.00;101273.13;4977967;28;20034;-63
2023/01/24 04:48:42;;;;;;;17.42;8.00;;;;;;;3.10;100.00;101264.75;4980191;28;20045;-63
2023/01/24 04:51:09;;;;;;;20.73;8.18;;;;;;;3.11;100.00;101276.91;4979062;28;20039;-62
2023/01/24 04:53:38;;;;;;;22.83;9.27;;;;;;;3.10;100.00;101274.38;4977742;28;20288;-61
2023/01/24 04:56:04;;;;;;;22.65;7.40;;;;;;;2.98;100.00;101267.97;4980519;28;20052;-61
2023/01/24 04:58:31;;;;;;;33.60;11.65;;;;;;;3.02;100.00;101268.66;4980680;28;20354;-64
2023/01/24 05:00:56;;;;;;;27.92;11.05;;;;;;;3.03;100.00;101275.59;4979957;28;20386;-63
2023/01/24 05:03:21;;;;;;;16.67;7.97;;;;;;;3.08;100.00;101273.59;4978869;28;20054;-62
2023/01/24 05:05:51;;;;;;;24.55;8.50;;;;;;;2.98;100.00;101283.69;4979374;28;20035;-62
2023/01/24 05:08:17;;;;;;;27.73;10.43;;;;;;;3.05;100.00;101278.97;4984725;28;20054;-61
2023/01/24 05:10:42;;;;;;;26.58;9.70;;;;;;;2.96;100.00;101282.06;4979800;28;20042;-63
2023/01/24 05:13:08;;;;;;;22.20;9.52;;;;;;;3.02;100.00;101282.59;4979168;28;20049;-63
2023/01/24 05:15:33;;;;;;;19.27;9.63;;;;;;;2.98;100.00;101286.28;4980494;28;20324;-61
2023/01/24 05:17:59;;;;;;;23.35;10.80;;;;;;;3.14;100.00;101283.78;4979953;28;20038;-61
2023/01/24 05:20:24;;;;;;;20.42;9.57;;;;;;;3.02;100.00;101287.84;4978798;28;20041;-61
2023/01/24 05:22:50;;;;;;;21.48;9.98;;;;;;;3.10;100.00;101282.22;4978635;28;20046;-63
2023/01/24 05:25:16;;;;;;;22.08;10.43;;;;;;;3.10;100.00;101288.28;4980163;28;20043;-63
2023/01/24 05:27:42;;;;;;;21.92;10.30;;;;;;;3.08;100.00;101295.38;4979145;28;20491;-61
2023/01/24 05:30:08;;;;;;;18.67;8.77;;;;;;;3.08;100.00;101291.91;4980187;28;20141;-61
2023/01/24 05:32:33;;;;;;;21.05;8.18;;;;;;;3.08;100.00;101291.91;4983103;28;20057;-63
2023/01/24 05:34:58;;;;;;;20.20;8.02;;;;;;;2.92;100.00;101290.97;4983645;28;20043;-64
2023/01/24 05:37:24;;;;;;;16.10;7.50;;;;;;;2.93;100.00;101297.91;4982861;28;20057;-60
2023/01/24 05:39:49;;;;;;;18.33;8.25;;;;;;;3.00;100.00;101299.28;4984016;28;20045;-61
2023/01/24 05:42:15;;;;;;;12.02;6.13;;;;;;;2.93;100.00;101304.00;4983354;28;20034;-61
2023/01/24 05:44:41;;;;;;;17.30;7.07;;;;;;;2.87;100.00;101299.91;4983262;28;20039;-61
2023/01/24 05:47:06;;;;;;;13.23;6.38;;;;;;;2.85;100.00;101300.91;4986117;28;20057;-63
2023/01/24 05:49:32;;;;;;;11.48;5.78;;;;;;;2.86;100.00;101306.06;4983583;28;20038;-61
2023/01/24 05:51:57;;;;;;;17.00;8.18;;;;;;;2.92;100.00;101306.69;4984289;28;20043;-62
2023/01/24 05:54:23;;;;;;;17.17;9.30;;;;;;;2.89;100.00;101305.91;4984006;28;20041;-61
2023/01/24 05:56:48;;;;;;;18.67;8.27;;;;;;;2.94;100.00;101305.69;4983046;28;20054;-64
2023/01/24 05:59:14;;;;;;;22.02;10.63;;;;;;;2.91;100.00;101302.38;4982939;28;20034;-61
2023/01/24 06:01:39;;;;;;;21.75;10.20;;;;;;;3.06;100.00;101304.22;4983527;28;20038;-62
2023/01/24 06:04:05;;;;;;;21.40;10.13;;;;;;;3.00;100.00;101313.22;4984514;28;20053;-62
2023/01/24 06:06:31;;;;;;;23.55;9.90;;;;;;;3.01;100.00;101304.44;4983378;28;20049;-62
2023/01/24 06:08:56;;;;;;;19.40;8.80;;;;;;;2.90;100.00;101309.38;4984475;28;20066;-61
2023/01/24 06:11:24;;;;;;;17.27;8.55;;;;;;;2.97;100.00;101307.31;4984059;28;20197;-63
2023/01/24 06:13:50;;;;;;;22.10;8.57;;;;;;;2.96;100.00;101313.47;4982964;28;20066;-62
2023/01/24 06:16:19;;;;;;;20.40;8.43;;;;;;;3.00;100.00;101318.47;4983485;28;20058;-62
2023/01/24 06:18:45;;;;;;;16.90;7.82;;;;;;;3.06;100.00;101322.53;4982402;28;20038;-62
2023/01/24 06:21:32;;;;;;;23.35;10.48;;;;;;;3.14;100.00;101315.19;4980961;28;20134;-63
2023/01/24 06:23:57;;;;;;;17.13;8.95;;;;;;;3.09;100.00;101330.25;4981523;28;20239;-63
2023/01/24 06:26:23;;;;;;;14.88;7.13;;;;;;;3.01;100.00;101332.38;4983136;28;20089;-62
2023/01/24 06:28:49;;;;;;;15.73;5.93;;;;;;;2.89;100.00;101331.22;4982852;28;20034;-61
2023/01/24 06:31:51;;;;;;;19.73;8.48;;;;;;;2.91;100.00;101332.00;4982540;28;20042;-61
2023/01/24 06:34:38;;;;;;;14.55;5.88;;;;;;;2.78;100.00;101341.34;4982519;28;20256;-61
2023/01/24 06:37:21;;;;;;;25.27;8.60;;;;;;;2.81;100.00;101349.06;4983441;28;20042;-64
2023/01/24 06:39:51;;;;;;;17.63;7.63;;;;;;;2.86;100.00;101347.06;4984758;28;20034;-62
2023/01/24 06:42:22;;;;;;;14.88;6.82;;;;;;;2.82;100.00;101348.97;4979174;28;20042;-61
2023/01/24 06:44:48;;;;;;;14.82;7.32;;;;;;;2.86;100.00;101347.06;4983149;28;20042;-62
2023/01/24 06:47:14;;;;;;;22.15;9.90;;;;;;;2.97;100.00;101343.94;4983027;28;20050;-64
2023/01/24 06:49:41;;;;;;;23.60;9.80;;;;;;;2.96;100.00;101342.25;4981015;28;20038;-63
2023/01/24 06:52:06;;;;;;;15.82;8.05;;;;;;;2.99;100.00;101355.16;4980937;28;20054;-61
2023/01/24 06:54:35;;;;;;;15.20;7.95;;;;;;;3.08;100.00;101346.88;4982989;28;20453;-61
2023/01/24 06:57:01;;;;;;;19.90;8.73;;;;;;;3.07;100.00;101361.72;4981124;28;20046;-61
2023/01/24 06:59:27;;;;;;;11.75;6.47;;;;;;;3.07;100.00;101368.72;4981019;28;20042;-62
2023/01/24 07:01:52;;;;;;;13.85;7.22;;;;;;;2.99;100.00;101371.72;4979197;28;20041;-63
2023/01/24 07:04:18;;;;;;;12.32;5.65;;;;;;;2.96;100.00;101373.63;4980877;28;20030;-61
2023/01/24 07:06:44;;;;;;;15.48;7.68;;;;;;;3.03;100.00;101370.66;4982079;28;20086;-62
2023/01/24 07:09:09;;;;;;;11.30;6.13;;;;;;;2.97;100.00;101376.19;4982198;28;20042;-61
2023/01/24 07:11:35;;;;;;;19.85;8.48;;;;;;;3.10;100.00;101372.03;4981499;28;20126;-63
2023/01/24 07:14:02;;;;;;;13.88;6.72;;;;;;;3.03;100.00;101380.28;4982075;28;20101;-63
2023/01/24 07:16:27;;;;;;;15.30;6.32;;;;;;;3.01;100.00;101372.50;4980889;28;20126;-61
2023/01/24 07:18:53;;;;;;;19.42;9.52;;;;;;;3.08;100.00;101379.13;4982117;28;20260;-60
2023/01/24 07:21:19;;;;;;;17.48;8.63;;;;;;;3.12;100.00;101380.69;4981032;28;20046;-63
2023/01/24 07:23:49;;;;;;;18.38;8.23;;;;;;;3.08;100.00;101376.50;4981200;28;20049;-62
2023/01/24 07:26:15;;;;;;;12.90;5.80;;;;;;;3.01;100.00;101376.88;4994971;28;20085;-61
2023/01/24 07:28:42;;;;;;;16.13;8.88;;;;;;;3.18;100.00;101379.56;4992779;28;20335;-61
2023/01/24 07:31:12;;;;;;;10.20;6.05;;;;;;;3.00;100.00;101388.28;4994471;28;20101;-61
2023/01/24 07:33:37;;;;;;;10.93;5.32;;;;;;;2.96;100.00;101391.94;4994568;28;20069;-61
2023/01/24 07:36:14;;;;;;;12.73;7.40;;;;;;;2.94;100.00;101389.41;4993506;28;20034;-63
2023/01/24 07:38:39;;;;;;;12.60;5.75;;;;;;;2.98;100.00;101390.13;4992274;28;20053;-61
2023/01/24 07:41:08;;;;;;;17.58;8.57;;;;;;;3.12;100.00;101400.75;4993930;28;20039;-61
2023/01/24 07:43:34;;;;;;;18.05;8.23;;;;;;;3.12;100.00;101391.16;4994277;28;20038;-63
2023/01/24 07:45:59;;;;;;;17.73;5.63;;;;;;;3.09;100.00;101393.06;4994941;28;20049;-63
2023/01/24 07:48:24;;;;;;;9.88;5.03;;;;;;;2.98;100.00;101396.19;4993861;28;20206;-61
2023/01/24 07:50:50;;;;;;;12.68;5.63;;;;;;;3.08;100.00;101397.44;4995680;28;20030;-62
2023/01/24 07:53:15;;;;;;;14.13;6.70;;;;;;;3.12;100.00;101395.53;4993958;28;20344;-61
2023/01/24 07:55:41;;;;;;;10.77;5.72;;;;;;;3.18;100.00;101408.34;4993676;28;20332;-62
2023/01/24 07:58:06;;;;;;;13.10;5.90;;;;;;;3.20;100.00;101396.88;4993572;28;20045;-64
2023/01/24 08:00:32;;;;;;;11.85;6.20;;;;;;;3.26;100.00;101397.50;4994286;28;20048;-62
2023/01/24 08:02:57;;;;;;;16.02;7.95;;;;;;;3.38;100.00;101394.28;4993976;28;20042;-62
2023/01/24 08:05:23;;;;;;;14.43;7.93;;;;;;;3.40;100.00;101395.91;4992508;28;20034;-62
2023/01/24 08:07:48;;;;;;;13.63;7.40;;;;;;;3.33;100.00;101406.75;4994138;28;20368;-64
2023/01/24 08:10:14;;;;;;;16.20;6.95;;;;;;;3.36;100.00;101404.84;4993195;28;20026;-64
2023/01/24 08:12:40;;;;;;;11.55;6.97;;;;;;;3.39;100.00;101406.44;4992922;28;20133;-62
2023/01/24 08:15:06;;;;;;;13.05;6.28;;;;;;;3.39;100.00;101416.94;4991568;28;20050;-63
2023/01/24 08:17:32;;;;;;;15.77;7.80;;;;;;;3.44;100.00;101405.31;4994606;28;20224;-62
2023/01/24 08:19:57;;;;;;;17.15;8.57;;;;;;;3.46;100.00;101410.47;4993392;28;20302;-63
2023/01/24 08:22:24;;;;;;;10.13;5.45;;;;;;;3.44;100.00;101412.31;4994304;28;20037;-63
2023/01/24 08:24:50;;;;;;;11.07;6.95;;;;;;;3.45;100.00;101419.25;4990825;28;20030;-62
2023/01/24 08:27:15;;;;;;;9.50;5.75;;;;;;;3.47;100.00;101420.00;4990524;28;20048;-61
2023/01/24 08:29:41;;;;;;;8.63;4.88;;;;;;;3.44;100.00;101414.94;4991999;28;20382;-61
2023/01/24 08:32:06;;;;;;;16.52;7.68;;;;;;;3.66;100.00;101410.31;4990572;28;20271;-64
2023/01/24 08:34:31;;;;;;;10.98;5.60;;;;;;;3.49;100.00;101407.69;4991906;28;20212;-64
2023/01/24 08:36:57;;;;;;;13.85;7.70;;;;;;;3.56;100.00;101413.47;4990649;28;20035;-62
2023/01/24 08:39:22;;;;;;;14.18;6.93;;;;;;;3.46;100.00;101410.47;4992154;28;20038;-61
2023/01/24 08:41:48;;;;;;;10.13;5.43;;;;;;;3.54;100.00;101405.69;4993503;28;20038;-64
2023/01/24 08:44:13;;;;;;;17.05;7.80;;;;;;;3.55;100.00;101409.16;4994589;28;20057;-63
2023/01/24 08:46:39;;;;;;;14.75;7.30;;;;;;;3.60;100.00;101409.78;4992985;28;20046;-61
2023/01/24 08:49:04;;;;;;;12.57;6.47;;;;;;;3.50;100.00;101412.84;4994725;28;20053;-61
2023/01/24 08:51:30;;;;;;;13.85;6.63;;;;;;;3.64;100.00;101411.31;4991371;28;20038;-62
2023/01/24 08:53:55;;;;;;;12.23;6.20;;;;;;;3.61;100.00;101414.09;4992797;28;20038;-65
2023/01/24 08:56:21;;;;;;;10.50;6.13;;;;;;;3.56;100.00;101421.31;4992760;28;20137;-65
2023/01/24 08:58:46;;;;;;;9.20;4.00;;;;;;;3.48;100.00;101422.56;4993219;28;20064;-61
2023/01/24 09:01:12;;;;;;;12.85;7.03;;;;;;;3.60;100.00;101417.63;4992180;28;20054;-61
2023/01/24 09:03:37;;;;;;;15.75;7.00;;;;;;;3.64;100.00;101417.41;4992947;28;20056;-62
2023/01/24 09:06:04;;;;;;;14.13;6.07;;;;;;;3.58;100.00;101419.47;4993168;28;20034;-63
2023/01/24 09:08:30;;;;;;;9.70;5.40;;;;;;;3.63;100.00;101407.84;4991176;28;20073;-64
2023/01/24 09:11:00;;;;;;;12.68;6.40;;;;;;;3.70;100.00;101418.88;4993295;28;20027;-62
2023/01/24 09:13:26;;;;;;;12.95;6.95;;;;;;;3.74;100.00;101415.16;4993128;28;20042;-61
2023/01/24 09:15:52;;;;;;;14.48;5.43;;;;;;;3.63;100.00;101418.31;4994743;28;20447;-63
2023/01/24 09:18:17;;;;;;;13.35;6.00;;;;;;;3.59;100.00;101413.31;4992408;28;20163;-63
2023/01/24 09:20:43;;;;;;;16.33;6.10;;;;;;;3.66;100.00;101407.69;4993231;28;20045;-64
2023/01/24 09:23:12;;;;;;;15.38;7.80;;;;;;;3.80;100.00;101404.38;4994172;28;20041;-61
2023/01/24 09:25:38;;;;;;;14.48;6.22;;;;;;;3.83;100.00;101402.44;4992684;28;20053;-62
2023/01/24 09:28:04;;;;;;;11.38;5.28;;;;;;;3.83;100.00;101409.44;4992785;28;20320;-63
2023/01/24 09:30:29;;;;;;;16.00;7.15;;;;;;;3.91;100.00;101396.81;4992129;28;20038;-61
2023/01/24 09:32:55;;;;;;;16.90;7.75;;;;;;;4.07;100.00;101396.84;4993470;28;20854;-62
2023/01/24 09:35:20;;;;;;;7.28;4.28;;;;;;;3.78;100.00;101401.81;4992702;28;20112;-62
2023/01/24 09:37:46;;;;;;;12.68;5.47;;;;;;;3.87;100.00;101397.03;4993780;28;20042;-63
2023/01/24 09:40:30;;;;;;;12.70;6.05;;;;;;;3.92;100.00;101389.78;4990763;28;20030;-63
2023/01/24 09:43:13;;;;;;;10.23;5.82;;;;;;;4.02;100.00;101386.63;4992150;28;20046;-62
2023/01/24 09:45:52;;;;;;;11.05;6.22;;;;;;;3.99;100.00;101389.38;4989975;28;20293;-62
2023/01/24 09:48:19;;;;;;;9.73;5.30;;;;;;;4.05;100.00;101389.06;4990646;28;20101;-61
2023/01/24 09:50:44;;;;;;;12.80;5.22;;;;;;;4.05;100.00;101389.06;4993396;28;20835;-64
2023/01/24 09:53:27;;;;;;;11.25;5.35;;;;;;;4.07;100.00;101379.34;4991974;28;20070;-64
2023/01/24 09:55:53;;;;;;;8.90;5.15;;;;;;;4.05;100.00;101389.06;4991102;28;20065;-62
2023/01/24 09:58:39;;;;;;;6.97;3.55;;;;;;;3.99;100.00;101384.16;4992697;28;20339;-62
2023/01/24 10:01:11;;;;;;;11.80;5.32;;;;;;;4.01;100.00;101379.69;4992472;28;20244;-62
2023/01/24 10:03:38;;;;;;;9.93;4.03;;;;;;;4.02;100.00;101377.91;4991944;28;20050;-63
2023/01/24 10:06:14;;;;;;;11.95;6.07;;;;;;;4.09;100.00;101379.28;4992130;28;20038;-63
2023/01/24 10:08:55;;;;;;;11.38;5.57;;;;;;;4.15;100.00;101371.09;4989891;28;20141;-62
2023/01/24 10:11:55;;;;;;;14.13;5.97;;;;;;;4.11;100.00;101370.41;4993012;28;20113;-62
2023/01/24 10:14:34;;;;;;;12.45;5.93;;;;;;;4.23;100.00;101371.56;4992504;28;20042;-63
2023/01/24 10:17:03;;;;;;;11.25;5.03;;;;;;;4.41;100.00;101367.09;4990811;28;20049;-62
2023/01/24 10:19:45;;;;;;;11.98;5.60;;;;;;;4.49;100.00;101365.75;4996379;28;20043;-62
2023/01/24 10:22:14;;;;;;;6.63;3.42;;;;;;;4.41;100.00;101364.47;4995858;28;20264;-61
2023/01/24 10:24:43;;;;;;;8.05;4.40;;;;;;;4.62;100.00;101362.44;4995653;28;20042;-63
2023/01/24 10:27:31;;;;;;;9.38;4.70;;;;;;;4.64;100.00;101363.22;4996772;28;20030;-64
2023/01/24 10:30:12;;;;;;;11.18;6.75;;;;;;;4.62;100.00;101355.44;4995605;28;20042;-64
2023/01/24 10:32:43;;;;;;;10.18;4.68;;;;;;;4.74;100.00;101343.41;4996341;28;20034;-62
2023/01/24 10:35:21;;;;;;;7.43;4.30;;;;;;;4.61;100.00;101342.41;4995011;28;20304;-62
2023/01/24 10:37:55;;;;;;;9.07;5.03;;;;;;;4.57;100.00;101340.88;4995357;28;20035;-64
2023/01/24 10:40:22;;;;;;;10.00;4.78;;;;;;;4.48;100.00;101347.47;4994905;28;20042;-64
2023/01/24 10:42:47;;;;;;;10.73;5.38;;;;;;;4.59;100.00;101339.00;4996444;28;20038;-64
2023/01/24 10:45:42;;;;;;;8.85;4.70;;;;;;;4.76;100.00;101331.03;4995022;28;20372;-62
2023/01/24 10:48:55;;;;;;;9.20;4.43;;;;;;;4.65;100.00;101334.25;4994607;28;20327;-62
2023/01/24 10:51:23;;;;;;;5.47;3.55;;;;;;;4.35;100.00;101328.94;4972453;28;20336;-62
2023/01/24 10:53:49;;;;;;;9.65;4.72;;;;;;;4.58;100.00;101326.81;4995819;28;20038;-62
2023/01/24 10:56:18;;;;;;;10.27;4.88;;;;;;;4.81;100.00;101326.38;4995336;28;20390;-62
2023/01/24 10:59:03;;;;;;;8.60;4.15;;;;;;;4.60;100.00;101315.31;4995026;28;20034;-62
2023/01/24 11:01:42;;;;;;;8.38;4.30;;;;;;;5.05;100.00;101316.25;4994837;28;20044;-64
2023/01/24 11:04:19;;;;;;;9.73;4.25;;;;;;;4.86;100.00;101321.72;4993787;28;20376;-64
2023/01/24 11:06:48;;;;;;;8.70;4.10;;;;;;;4.83;100.00;101319.25;4996335;28;20041;-62
2023/01/24 11:09:25;;;;;;;6.55;3.58;;;;;;;4.78;100.00;101322.16;4993696;28;20267;-61
2023/01/24 11:11:55;;;;;;;10.45;4.53;;;;;;;4.90;100.00;101310.09;4995068;28;20508;-63
2023/01/24 11:14:24;;;;;;;6.68;2.97;;;;;;;4.92;99.05;101312.66;4996232;28;20430;-63
2023/01/24 11:16:55;;;;;;;6.90;3.38;;;;;;;5.04;99.36;101306.69;4994980;28;20030;-64
2023/01/24 11:19:21;;;;;;;7.55;3.67;;;;;;;5.43;98.92;101304.38;4993664;28;20034;-64
2023/01/24 11:21:55;;;;;;;5.03;3.30;;;;;;;5.61;97.22;101312.09;4995272;28;20061;-63
2023/01/24 11:24:22;;;;;;;6.50;3.58;;;;;;;5.44;97.67;101303.44;4993483;28;20258;-64
2023/01/24 11:27:12;;;;;;;7.50;3.65;;;;;;;5.67;98.85;101301.22;4994607;28;20041;-64
2023/01/24 11:29:37;;;;;;;7.70;3.75;;;;;;;5.67;99.61;101303.84;4993682;28;20034;-62
2023/01/24 11:32:31;;;;;;;7.13;4.00;;;;;;;5.80;97.74;101301.31;4992846;28;20064;-61
2023/01/24 11:35:04;;;;;;;8.35;3.72;;;;;;;5.80;96.22;101306.59;4992376;28;20251;-62
2023/01/24 11:37:43;;;;;;;7.80;4.53;;;;;;;5.74;98.36;101298.13;4992998;28;20042;-63
2023/01/24 11:40:54;;;;;;;9.10;3.75;;;;;;;5.99;97.98;101294.88;4990371;28;20061;-63
2023/01/24 11:43:34;;;;;;;7.90;3.67;;;;;;;6.12;95.20;101294.97;4979600;28;20057;-63
2023/01/24 11:46:13;;;;;;;7.82;3.85;;;;;;;5.82;97.47;101294.19;4995548;28;20224;-62
2023/01/24 11:49:05;;;;;;;6.35;3.70;;;;;;;6.06;96.52;101290.94;4994868;28;20034;-65
2023/01/24 11:51:45;;;;;;;5.47;3.65;;;;;;;6.00;96.21;101286.03;4992892;28;20038;-64
2023/01/24 11:54:25;;;;;;;6.43;3.10;;;;;;;5.83;95.29;101282.75;4993661;28;20085;-62
2023/01/24 11:57:01;;;;;;;7.63;3.78;;;;;;;6.14;95.85;101285.19;4992637;28;20332;-62
2023/01/24 11:59:44;;;;;;;6.97;4.15;;;;;;;6.22;95.01;101284.69;4993618;28;20252;-62